createdAt,value
2018-08-11T00:00:23.153Z,18.50
2018-08-11T00:01:27.327Z,18.50
2018-08-11T00:02:31.548Z,18.50
2018-08-11T00:03:35.656Z,18.50
2018-08-11T00:04:40.172Z,18.50
2018-08-11T00:05:44.304Z,18.50
2018-08-11T00:06:48.465Z,18.50
2018-08-11T00:07:52.597Z,18.40
2018-08-11T00:08:56.743Z,18.40
2018-08-11T00:10:00.946Z,18.40
2018-08-11T00:11:05.102Z,18.40
2018-08-11T00:12:09.145Z,18.40
2018-08-11T00:13:13.452Z,18.40
2018-08-11T00:14:17.659Z,18.40
2018-08-11T00:15:21.935Z,18.40
2018-08-11T00:16:26.060Z,18.40
2018-08-11T00:17:30.370Z,18.40
2018-08-11T00:18:34.420Z,18.40
2018-08-11T00:19:38.539Z,18.40
2018-08-11T00:20:42.620Z,18.40
2018-08-11T00:21:46.671Z,18.30
2018-08-11T00:22:50.960Z,18.30
2018-08-11T00:23:55.093Z,18.30
2018-08-11T00:24:59.153Z,18.30
2018-08-11T00:26:03.312Z,18.30
2018-08-11T00:27:07.446Z,18.30
2018-08-11T00:28:11.611Z,18.30
2018-08-11T00:29:15.747Z,18.30
2018-08-11T00:30:21.165Z,18.30
2018-08-11T00:31:25.286Z,18.30
2018-08-11T00:32:29.647Z,18.30
2018-08-11T00:33:33.734Z,18.30
2018-08-11T00:34:37.849Z,18.30
2018-08-11T00:35:42.001Z,18.30
2018-08-11T00:36:46.264Z,18.20
2018-08-11T00:37:50.359Z,18.20
2018-08-11T00:38:54.572Z,18.20
2018-08-11T00:39:58.795Z,18.20
2018-08-11T00:41:02.848Z,18.20
2018-08-11T00:42:07.032Z,18.20
2018-08-11T00:43:11.228Z,18.20
2018-08-11T00:44:15.317Z,18.20
2018-08-11T00:45:19.902Z,18.20
2018-08-11T00:46:24.083Z,18.20
2018-08-11T00:47:28.314Z,18.20
2018-08-11T00:48:32.397Z,18.20
2018-08-11T00:49:36.618Z,18.20
2018-08-11T00:50:40.720Z,18.20
2018-08-11T00:51:44.866Z,18.20
2018-08-11T00:52:48.990Z,18.20
2018-08-11T00:53:53.149Z,18.20
2018-08-11T00:54:57.255Z,18.20
2018-08-11T00:56:01.395Z,18.10
2018-08-11T00:57:05.541Z,18.10
2018-08-11T00:58:09.579Z,18.10
2018-08-11T00:59:13.631Z,18.10
2018-08-11T01:00:18.624Z,18.10
2018-08-11T01:01:22.804Z,18.10
2018-08-11T01:02:26.947Z,18.10
2018-08-11T01:03:31.029Z,18.10
2018-08-11T01:04:35.117Z,18.10
2018-08-11T01:05:39.293Z,18.10
2018-08-11T01:06:43.407Z,18.10
2018-08-11T01:07:48.017Z,18.10
2018-08-11T01:08:52.067Z,18.10
2018-08-11T01:09:56.233Z,18.10
2018-08-11T01:11:00.384Z,18.10
2018-08-11T01:12:04.472Z,18.10
2018-08-11T01:13:08.712Z,18.10
2018-08-11T01:14:12.878Z,18.10
2018-08-11T01:15:19.096Z,18.10
2018-08-11T01:16:23.278Z,18.10
2018-08-11T01:17:27.415Z,18.10
2018-08-11T01:18:37.653Z,18.10
2018-08-11T01:19:47.795Z,18.10
2018-08-11T01:20:57.736Z,18.10
2018-08-11T01:22:02.459Z,18.10
2018-08-11T01:23:06.579Z,18.10
2018-08-11T01:24:10.800Z,18.10
2018-08-11T01:25:15.305Z,18.10
2018-08-11T01:26:19.367Z,18.00
2018-08-11T01:27:23.720Z,18.00
2018-08-11T01:28:27.825Z,18.00
2018-08-11T01:29:31.926Z,18.00
2018-08-11T01:30:36.119Z,18.00
2018-08-11T01:31:40.219Z,18.00
2018-08-11T01:32:44.428Z,18.00
2018-08-11T01:33:48.549Z,18.00
2018-08-11T01:34:52.722Z,18.00
2018-08-11T01:35:56.746Z,18.00
2018-08-11T01:37:00.865Z,18.00
2018-08-11T01:38:05.006Z,18.00
2018-08-11T01:39:09.649Z,18.00
2018-08-11T01:40:14.961Z,18.00
2018-08-11T01:41:19.086Z,18.00
2018-08-11T01:42:23.153Z,18.00
2018-08-11T01:43:27.285Z,18.00
2018-08-11T01:44:31.462Z,18.00
2018-08-11T01:45:35.608Z,18.00
2018-08-11T01:46:39.784Z,18.00
2018-08-11T01:47:44.121Z,17.90
2018-08-11T01:48:48.281Z,17.90
2018-08-11T01:49:52.398Z,17.90
2018-08-11T01:50:56.548Z,17.90
2018-08-11T01:52:00.742Z,17.90
2018-08-11T01:53:04.815Z,17.90
2018-08-11T01:54:08.985Z,17.90
2018-08-11T01:55:14.576Z,17.90
2018-08-11T01:56:18.717Z,17.90
2018-08-11T01:57:22.900Z,17.90
2018-08-11T01:58:26.962Z,17.90
2018-08-11T01:59:31.052Z,17.90
2018-08-11T02:00:35.149Z,17.90
2018-08-11T02:01:39.391Z,17.90
2018-08-11T02:02:43.548Z,17.90
2018-08-11T02:03:47.765Z,17.80
2018-08-11T02:04:51.905Z,17.80
2018-08-11T02:05:56.059Z,17.80
2018-08-11T02:07:00.185Z,17.80
2018-08-11T02:08:04.458Z,17.80
2018-08-11T02:09:09.579Z,17.80
2018-08-11T02:10:16.199Z,17.80
2018-08-11T02:11:20.478Z,17.80
2018-08-11T02:12:24.529Z,17.80
2018-08-11T02:13:28.638Z,17.80
2018-08-11T02:14:32.756Z,17.80
2018-08-11T02:15:36.836Z,17.80
2018-08-11T02:16:40.988Z,17.80
2018-08-11T02:17:45.076Z,17.70
2018-08-11T02:18:49.225Z,17.70
2018-08-11T02:19:53.296Z,17.70
2018-08-11T02:20:57.428Z,17.70
2018-08-11T02:22:01.518Z,17.70
2018-08-11T02:23:05.941Z,17.70
2018-08-11T02:24:10.091Z,17.70
2018-08-11T02:25:14.515Z,17.70
2018-08-11T02:26:18.609Z,17.70
2018-08-11T02:27:22.743Z,17.70
2018-08-11T02:28:26.912Z,17.70
2018-08-11T02:29:31.093Z,17.60
2018-08-11T02:30:35.159Z,17.60
2018-08-11T02:31:39.241Z,17.60
2018-08-11T02:32:43.340Z,17.60
2018-08-11T02:33:47.398Z,17.60
2018-08-11T02:34:51.592Z,17.60
2018-08-11T02:35:55.678Z,17.60
2018-08-11T02:36:59.885Z,17.60
2018-08-11T02:38:04.003Z,17.60
2018-08-11T02:39:11.099Z,17.60
2018-08-11T02:40:16.209Z,17.60
2018-08-11T02:41:20.341Z,17.60
2018-08-11T02:42:24.528Z,17.60
2018-08-11T02:43:28.761Z,17.60
2018-08-11T02:44:32.963Z,17.60
2018-08-11T02:45:37.169Z,17.60
2018-08-11T02:46:41.221Z,17.60
2018-08-11T02:47:46.185Z,17.60
2018-08-11T02:48:50.289Z,17.50
2018-08-11T02:49:54.479Z,17.50
2018-08-11T02:50:58.611Z,17.60
2018-08-11T02:52:02.696Z,17.50
2018-08-11T02:53:06.791Z,17.60
2018-08-11T02:54:10.872Z,17.50
2018-08-11T02:55:15.014Z,17.50
2018-08-11T02:56:19.119Z,17.50
2018-08-11T02:57:23.189Z,17.50
2018-08-11T02:58:27.248Z,17.60
2018-08-11T02:59:31.417Z,17.50
2018-08-11T03:00:35.568Z,17.60
2018-08-11T03:01:39.633Z,17.60
2018-08-11T03:02:43.775Z,17.60
2018-08-11T03:03:47.927Z,17.60
2018-08-11T03:04:52.029Z,17.60
2018-08-11T03:05:56.083Z,17.60
2018-08-11T03:07:00.216Z,17.60
2018-08-11T03:08:04.374Z,17.60
2018-08-11T03:09:08.773Z,17.60
2018-08-11T03:10:12.901Z,17.60
2018-08-11T03:11:17.064Z,17.60
2018-08-11T03:12:21.200Z,17.60
2018-08-11T03:13:25.999Z,17.60
2018-08-11T03:14:30.113Z,17.60
2018-08-11T03:15:34.225Z,17.60
2018-08-11T03:16:38.343Z,17.60
2018-08-11T03:17:42.609Z,17.60
2018-08-11T03:18:53.355Z,17.60
2018-08-11T03:19:57.443Z,17.60
2018-08-11T03:21:01.548Z,17.60
2018-08-11T03:22:05.644Z,17.60
2018-08-11T03:23:09.699Z,17.60
2018-08-11T03:24:13.875Z,17.60
2018-08-11T03:25:17.985Z,17.60
2018-08-11T03:26:22.061Z,17.60
2018-08-11T03:27:26.097Z,17.60
2018-08-11T03:28:30.204Z,17.60
2018-08-11T03:29:34.240Z,17.60
2018-08-11T03:30:38.389Z,17.60
2018-08-11T03:31:42.466Z,17.60
2018-08-11T03:32:46.507Z,17.60
2018-08-11T03:33:50.674Z,17.60
2018-08-11T03:34:54.825Z,17.60
2018-08-11T03:35:58.920Z,17.60
2018-08-11T03:37:03.040Z,17.60
2018-08-11T03:38:07.174Z,17.60
2018-08-11T03:39:12.432Z,17.60
2018-08-11T03:40:16.488Z,17.60
2018-08-11T03:41:20.505Z,17.60
2018-08-11T03:42:24.528Z,17.60
2018-08-11T03:43:28.632Z,17.60
2018-08-11T03:44:32.737Z,17.60
2018-08-11T03:45:36.789Z,17.60
2018-08-11T03:46:40.841Z,17.60
2018-08-11T03:47:44.893Z,17.60
2018-08-11T03:48:49.064Z,17.60
2018-08-11T03:49:53.200Z,17.60
2018-08-11T03:50:57.258Z,17.60
2018-08-11T03:52:01.386Z,17.60
2018-08-11T03:53:05.482Z,17.60
2018-08-11T03:54:09.599Z,17.60
2018-08-11T03:55:13.776Z,17.60
2018-08-11T03:56:17.846Z,17.60
2018-08-11T03:57:22.010Z,17.60
2018-08-11T03:58:26.111Z,17.60
2018-08-11T03:59:30.255Z,17.60
2018-08-11T04:00:34.313Z,17.60
2018-08-11T04:01:38.468Z,17.60
2018-08-11T04:02:42.483Z,17.60
2018-08-11T04:03:46.592Z,17.60
2018-08-11T04:04:50.744Z,17.50
2018-08-11T04:05:54.888Z,17.50
2018-08-11T04:06:59.090Z,17.50
2018-08-11T04:08:03.189Z,17.50
2018-08-11T04:09:08.732Z,17.50
2018-08-11T04:10:12.904Z,17.50
2018-08-11T04:11:16.959Z,17.50
2018-08-11T04:12:20.980Z,17.50
2018-08-11T04:13:25.159Z,17.50
2018-08-11T04:14:29.279Z,17.50
2018-08-11T04:15:33.408Z,17.50
2018-08-11T04:16:37.539Z,17.40
2018-08-11T04:17:42.097Z,17.40
2018-08-11T04:18:46.132Z,17.40
2018-08-11T04:19:50.313Z,17.40
2018-08-11T04:20:54.433Z,17.40
2018-08-11T04:21:58.539Z,17.40
2018-08-11T04:23:02.644Z,17.40
2018-08-11T04:24:06.748Z,17.40
2018-08-11T04:25:10.922Z,17.40
2018-08-11T04:26:14.917Z,17.40
2018-08-11T04:27:18.979Z,17.40
2018-08-11T04:28:23.099Z,17.40
2018-08-11T04:29:27.289Z,17.40
2018-08-11T04:30:31.372Z,17.40
2018-08-11T04:31:35.645Z,17.40
2018-08-11T04:32:40.157Z,17.40
2018-08-11T04:33:44.292Z,17.40
2018-08-11T04:34:48.436Z,17.40
2018-08-11T04:35:52.491Z,17.40
2018-08-11T04:36:56.625Z,17.40
2018-08-11T04:38:00.761Z,17.40
2018-08-11T04:39:07.481Z,17.40
2018-08-11T04:40:11.584Z,17.40
2018-08-11T04:41:15.630Z,17.40
2018-08-11T04:42:19.779Z,17.40
2018-08-11T04:43:23.856Z,17.40
2018-08-11T04:44:27.898Z,17.40
2018-08-11T04:45:32.068Z,17.40
2018-08-11T04:46:36.234Z,17.40
2018-08-11T04:47:40.326Z,17.40
2018-08-11T04:48:44.423Z,17.40
2018-08-11T04:49:48.636Z,17.40
2018-08-11T04:50:52.784Z,17.40
2018-08-11T04:51:57.025Z,17.40
2018-08-11T04:53:01.173Z,17.40
2018-08-11T04:54:05.308Z,17.40
2018-08-11T04:55:09.501Z,17.40
2018-08-11T04:56:13.572Z,17.40
2018-08-11T04:57:17.665Z,17.40
2018-08-11T04:58:21.867Z,17.40
2018-08-11T04:59:26.192Z,17.40
2018-08-11T05:00:30.270Z,17.40
2018-08-11T05:01:34.503Z,17.40
2018-08-11T05:02:38.605Z,17.40
2018-08-11T05:03:42.681Z,17.40
2018-08-11T05:04:46.788Z,17.40
2018-08-11T05:05:50.945Z,17.50
2018-08-11T05:06:55.036Z,17.50
2018-08-11T05:07:59.123Z,17.50
2018-08-11T05:09:03.358Z,17.50
2018-08-11T05:10:08.033Z,17.50
2018-08-11T05:11:12.151Z,17.50
2018-08-11T05:12:16.242Z,17.50
2018-08-11T05:13:20.379Z,17.50
2018-08-11T05:14:24.447Z,17.50
2018-08-11T05:15:28.588Z,17.50
2018-08-11T05:16:32.722Z,17.50
2018-08-11T05:17:36.767Z,17.50
2018-08-11T05:18:40.858Z,17.50
2018-08-11T05:19:45.220Z,17.60
2018-08-11T05:20:49.356Z,17.60
2018-08-11T05:21:53.422Z,17.60
2018-08-11T05:22:57.557Z,17.60
2018-08-11T05:24:01.688Z,17.60
2018-08-11T05:25:05.811Z,17.70
2018-08-11T05:26:09.890Z,17.60
2018-08-11T05:27:13.997Z,17.70
2018-08-11T05:28:18.112Z,17.70
2018-08-11T05:29:22.212Z,17.70
2018-08-11T05:30:26.307Z,17.70
2018-08-11T05:31:30.452Z,17.70
2018-08-11T05:32:34.566Z,17.70
2018-08-11T05:33:38.666Z,17.70
2018-08-11T05:34:42.812Z,17.70
2018-08-11T05:35:46.924Z,17.70
2018-08-11T05:36:51.185Z,17.80
2018-08-11T05:37:55.233Z,17.80
2018-08-11T05:38:59.372Z,17.80
2018-08-11T05:40:03.513Z,17.80
2018-08-11T05:41:07.740Z,17.80
2018-08-11T05:42:11.844Z,17.80
2018-08-11T05:43:15.945Z,17.80
2018-08-11T05:44:20.105Z,17.90
2018-08-11T05:45:24.291Z,17.90
2018-08-11T05:46:28.367Z,17.90
2018-08-11T05:47:32.451Z,17.90
2018-08-11T05:48:36.550Z,18.00
2018-08-11T05:49:40.736Z,18.00
2018-08-11T05:50:44.844Z,18.00
2018-08-11T05:51:48.891Z,18.00
2018-08-11T05:52:53.072Z,18.10
2018-08-11T05:53:57.227Z,18.10
2018-08-11T05:55:01.385Z,18.10
2018-08-11T05:56:05.727Z,18.10
2018-08-11T05:57:09.831Z,18.10
2018-08-11T05:58:14.023Z,18.20
2018-08-11T05:59:18.076Z,18.20
2018-08-11T06:00:22.132Z,18.20
2018-08-11T06:01:26.224Z,18.20
2018-08-11T06:02:30.364Z,18.20
2018-08-11T06:03:34.768Z,18.30
2018-08-11T06:04:38.919Z,18.30
2018-08-11T06:05:43.089Z,18.30
2018-08-11T06:06:47.258Z,18.40
2018-08-11T06:07:51.493Z,18.40
2018-08-11T06:08:55.652Z,18.40
2018-08-11T06:09:59.778Z,18.40
2018-08-11T06:11:03.900Z,18.40
2018-08-11T06:12:08.008Z,18.50
2018-08-11T06:13:12.085Z,18.50
2018-08-11T06:14:16.240Z,18.50
2018-08-11T06:15:20.395Z,18.50
2018-08-11T06:16:24.536Z,18.50
2018-08-11T06:17:28.626Z,18.60
2018-08-11T06:18:32.709Z,18.60
2018-08-11T06:19:36.831Z,18.60
2018-08-11T06:20:40.908Z,18.60
2018-08-11T06:21:45.048Z,18.70
2018-08-11T06:22:49.461Z,18.70
2018-08-11T06:23:53.481Z,18.70
2018-08-11T06:24:57.594Z,18.70
2018-08-11T06:26:01.703Z,18.80
2018-08-11T06:27:05.808Z,18.80
2018-08-11T06:28:09.889Z,18.80
2018-08-11T06:29:14.167Z,18.90
2018-08-11T06:30:18.259Z,18.90
2018-08-11T06:31:22.342Z,18.90
2018-08-11T06:32:26.491Z,18.90
2018-08-11T06:33:30.549Z,19.00
2018-08-11T06:34:34.744Z,19.00
2018-08-11T06:35:38.956Z,19.10
2018-08-11T06:36:43.102Z,19.10
2018-08-11T06:37:47.236Z,19.10
2018-08-11T06:38:51.311Z,19.20
2018-08-11T06:39:55.454Z,19.20
2018-08-11T06:40:59.718Z,19.20
2018-08-11T06:42:03.722Z,19.30
2018-08-11T06:43:07.904Z,19.30
2018-08-11T06:44:12.659Z,19.40
2018-08-11T06:45:16.767Z,19.40
2018-08-11T06:46:20.938Z,19.50
2018-08-11T06:47:25.014Z,19.50
2018-08-11T06:48:29.176Z,19.50
2018-08-11T06:49:33.279Z,19.60
2018-08-11T06:50:37.424Z,19.60
2018-08-11T06:51:41.537Z,19.70
2018-08-11T06:52:45.574Z,19.70
2018-08-11T06:53:49.675Z,19.80
2018-08-11T06:54:53.854Z,19.80
2018-08-11T06:55:58.034Z,19.80
2018-08-11T06:57:02.281Z,19.80
2018-08-11T06:58:06.503Z,19.90
2018-08-11T06:59:10.648Z,19.90
2018-08-11T07:00:14.771Z,19.90
2018-08-11T07:01:18.878Z,20.00
2018-08-11T07:02:23.042Z,20.00
2018-08-11T07:03:27.108Z,20.00
2018-08-11T07:04:31.273Z,20.00
2018-08-11T07:05:35.383Z,20.10
2018-08-11T07:06:39.600Z,20.10
2018-08-11T07:07:43.725Z,20.10
2018-08-11T07:08:47.829Z,20.20
2018-08-11T07:09:52.004Z,20.20
2018-08-11T07:10:56.160Z,20.20
2018-08-11T07:12:00.303Z,20.20
2018-08-11T07:13:04.457Z,20.30
2018-08-11T07:14:08.572Z,20.30
2018-08-11T07:15:12.806Z,20.30
2018-08-11T07:16:17.078Z,20.30
2018-08-11T07:17:21.195Z,20.30
2018-08-11T07:18:25.303Z,20.40
2018-08-11T07:19:29.458Z,20.40
2018-08-11T07:20:33.578Z,20.40
2018-08-11T07:21:37.654Z,20.40
2018-08-11T07:22:41.712Z,20.50
2018-08-11T07:23:45.864Z,20.50
2018-08-11T07:24:49.983Z,20.50
2018-08-11T07:25:54.077Z,20.50
2018-08-11T07:26:58.225Z,20.50
2018-08-11T07:28:02.292Z,20.50
2018-08-11T07:29:06.329Z,20.60
2018-08-11T07:30:10.479Z,20.60
2018-08-11T07:31:14.584Z,20.60
2018-08-11T07:32:18.680Z,20.60
2018-08-11T07:33:22.794Z,20.70
2018-08-11T07:34:26.886Z,20.70
2018-08-11T07:35:31.017Z,20.70
2018-08-11T07:36:35.261Z,20.70
2018-08-11T07:37:39.289Z,20.80
2018-08-11T07:38:43.462Z,20.80
2018-08-11T07:39:47.904Z,20.80
2018-08-11T07:40:52.036Z,20.80
2018-08-11T07:41:56.223Z,20.90
2018-08-11T07:43:00.278Z,20.90
2018-08-11T07:44:04.346Z,20.90
2018-08-11T07:45:08.491Z,20.90
2018-08-11T07:46:12.560Z,21.00
2018-08-11T07:47:16.727Z,21.00
2018-08-11T07:48:20.756Z,21.00
2018-08-11T07:49:24.882Z,21.10
2018-08-11T07:50:28.998Z,21.10
2018-08-11T07:51:33.048Z,21.10
2018-08-11T07:52:37.127Z,21.20
2018-08-11T07:53:41.238Z,21.20
2018-08-11T07:54:45.358Z,21.30
2018-08-11T07:55:49.453Z,21.30
2018-08-11T07:56:53.487Z,21.30
2018-08-11T07:57:57.563Z,21.40
2018-08-11T07:59:01.664Z,21.40
2018-08-11T08:00:07.892Z,21.40
2018-08-11T08:01:11.980Z,21.50
2018-08-11T08:02:16.108Z,21.50
2018-08-11T08:03:20.174Z,21.60
2018-08-11T08:04:24.307Z,21.60
2018-08-11T08:05:28.371Z,21.70
2018-08-11T08:06:32.561Z,21.70
2018-08-11T08:07:36.723Z,21.70
2018-08-11T08:08:40.819Z,21.80
2018-08-11T08:09:51.468Z,21.80
2018-08-11T08:10:55.623Z,21.90
2018-08-11T08:11:59.743Z,21.90
2018-08-11T08:13:03.802Z,21.90
2018-08-11T08:14:07.903Z,22.00
2018-08-11T08:15:12.026Z,22.00
2018-08-11T08:16:16.167Z,22.00
2018-08-11T08:17:20.388Z,22.10
2018-08-11T08:18:24.489Z,22.10
2018-08-11T08:19:28.641Z,22.20
2018-08-11T08:20:32.761Z,22.20
2018-08-11T08:21:36.972Z,22.20
2018-08-11T08:22:41.128Z,22.30
2018-08-11T08:23:45.172Z,22.30
2018-08-11T08:24:49.355Z,22.40
2018-08-11T08:25:53.487Z,22.40
2018-08-11T08:26:57.684Z,22.40
2018-08-11T08:28:01.807Z,22.50
2018-08-11T08:29:06.114Z,22.50
2018-08-11T08:30:11.561Z,22.60
2018-08-11T08:31:15.830Z,22.60
2018-08-11T08:32:19.972Z,22.70
2018-08-11T08:33:24.114Z,22.70
2018-08-11T08:34:28.308Z,22.80
2018-08-11T08:35:32.497Z,22.80
2018-08-11T08:36:37.070Z,22.80
2018-08-11T08:37:41.876Z,22.90
2018-08-11T08:38:46.321Z,22.90
2018-08-11T08:39:51.112Z,22.90
2018-08-11T08:40:55.558Z,22.90
2018-08-11T08:42:00.727Z,22.90
2018-08-11T08:43:06.604Z,22.90
2018-08-11T08:44:10.687Z,22.90
2018-08-11T08:45:15.093Z,22.90
2018-08-11T08:46:19.219Z,22.90
2018-08-11T08:47:23.426Z,22.90
2018-08-11T08:48:27.672Z,22.90
2018-08-11T08:49:31.728Z,22.90
2018-08-11T08:50:35.849Z,22.90
2018-08-11T08:51:40.065Z,23.00
2018-08-11T08:52:44.081Z,23.00
2018-08-11T08:53:48.166Z,23.00
2018-08-11T08:54:52.471Z,23.00
2018-08-11T08:55:56.600Z,23.10
2018-08-11T08:57:00.685Z,23.10
2018-08-11T08:58:04.804Z,23.20
2018-08-11T08:59:09.050Z,23.20
2018-08-11T09:00:13.106Z,23.20
2018-08-11T09:01:17.237Z,23.30
2018-08-11T09:02:21.476Z,23.30
2018-08-11T09:03:25.554Z,23.40
2018-08-11T09:04:29.698Z,23.40
2018-08-11T09:05:34.137Z,23.50
2018-08-11T09:06:38.277Z,23.50
2018-08-11T09:07:42.402Z,23.60
2018-08-11T09:08:46.556Z,23.70
2018-08-11T09:09:50.712Z,23.80
2018-08-11T09:10:54.887Z,23.80
2018-08-11T09:11:59.039Z,23.90
2018-08-11T09:13:03.099Z,24.00
2018-08-11T09:14:07.155Z,24.10
2018-08-11T09:15:11.274Z,24.10
2018-08-11T09:16:15.398Z,24.20
2018-08-11T09:17:19.562Z,24.30
2018-08-11T09:18:23.703Z,24.40
2018-08-11T09:19:27.928Z,24.40
2018-08-11T09:20:32.106Z,24.50
2018-08-11T09:21:36.248Z,24.60
2018-08-11T09:22:41.247Z,24.60
2018-08-11T09:23:46.093Z,24.70
2018-08-11T09:24:50.132Z,24.80
2018-08-11T09:25:54.290Z,24.80
2018-08-11T09:27:00.060Z,24.90
2018-08-11T09:28:04.281Z,25.00
2018-08-11T09:29:08.396Z,25.10
2018-08-11T09:30:13.361Z,25.20
2018-08-11T09:31:17.487Z,25.20
2018-08-11T09:32:22.959Z,25.30
2018-08-11T09:33:27.229Z,25.30
2018-08-11T09:34:31.382Z,25.40
2018-08-11T09:35:36.356Z,25.40
2018-08-11T09:36:40.506Z,25.50
2018-08-11T09:37:44.712Z,25.50
2018-08-11T09:38:48.787Z,25.50
2018-08-11T09:39:52.845Z,25.50
2018-08-11T09:40:57.490Z,25.60
2018-08-11T09:42:01.647Z,25.60
2018-08-11T09:43:05.853Z,25.70
2018-08-11T09:44:12.259Z,25.80
2018-08-11T09:45:16.432Z,25.80
2018-08-11T09:46:20.563Z,25.90
2018-08-11T09:47:24.793Z,26.00
2018-08-11T09:48:28.906Z,26.00
2018-08-11T09:49:33.068Z,26.10
2018-08-11T09:50:37.272Z,26.10
2018-08-11T09:51:41.341Z,26.20
2018-08-11T09:52:45.502Z,26.30
2018-08-11T09:53:49.632Z,26.30
2018-08-11T09:54:53.681Z,26.40
2018-08-11T09:55:57.741Z,26.50
2018-08-11T09:57:01.835Z,26.60
2018-08-11T09:58:06.028Z,26.70
2018-08-11T09:59:10.860Z,26.80
2018-08-11T10:00:18.771Z,26.90
2018-08-11T10:01:28.254Z,27.00
2018-08-11T10:02:32.479Z,27.10
2018-08-11T10:03:36.491Z,27.20
2018-08-11T10:04:40.665Z,27.30
2018-08-11T10:05:45.256Z,27.40
2018-08-11T10:06:49.253Z,27.50
2018-08-11T10:07:53.496Z,27.60
2018-08-11T10:08:58.028Z,27.70
2018-08-11T10:10:02.507Z,27.80
2018-08-11T10:11:06.764Z,27.90
2018-08-11T10:12:10.879Z,28.00
2018-08-11T10:14:25.365Z,28.30
2018-08-11T10:15:29.485Z,28.40
2018-08-11T10:16:33.619Z,28.60
2018-08-11T10:17:37.797Z,28.70
2018-08-11T10:18:41.865Z,28.80
2018-08-11T10:19:46.328Z,28.90
2018-08-11T10:20:50.644Z,29.00
2018-08-11T10:21:54.793Z,29.00
2018-08-11T10:22:58.896Z,29.10
2018-08-11T10:24:03.086Z,29.10
2018-08-11T10:25:07.181Z,29.20
2018-08-11T10:26:11.363Z,29.30
2018-08-11T10:27:15.459Z,29.30
2018-08-11T10:28:19.641Z,29.40
2018-08-11T10:29:23.813Z,29.50
2018-08-11T10:30:27.983Z,29.60
2018-08-11T10:31:32.076Z,29.70
2018-08-11T10:32:36.153Z,29.80
2018-08-11T10:33:40.283Z,29.90
2018-08-11T10:34:44.360Z,29.90
2018-08-11T10:35:48.509Z,30.00
2018-08-11T10:36:55.485Z,30.10
2018-08-11T10:37:59.617Z,30.30
2018-08-11T10:39:05.941Z,30.30
2018-08-11T10:40:10.366Z,30.40
2018-08-11T10:41:14.505Z,30.50
2018-08-11T10:42:18.775Z,30.70
2018-08-11T10:43:22.918Z,30.70
2018-08-11T10:44:27.011Z,30.80
2018-08-11T10:45:31.133Z,30.90
2018-08-11T10:46:35.205Z,31.00
2018-08-11T10:47:39.379Z,31.10
2018-08-11T10:48:43.422Z,31.10
2018-08-11T10:49:47.728Z,31.20
2018-08-11T10:50:57.089Z,31.30
2018-08-11T10:52:05.984Z,31.40
2018-08-11T10:53:15.315Z,31.50
2018-08-11T10:54:23.536Z,31.60
2018-08-11T10:55:31.329Z,31.70
2018-08-11T10:56:37.612Z,31.80
2018-08-11T10:57:45.970Z,31.80
2018-08-11T10:58:55.724Z,31.90
2018-08-11T11:00:03.327Z,32.00
2018-08-11T11:01:11.751Z,32.00
2018-08-11T11:02:21.309Z,32.10
2018-08-11T11:03:28.136Z,32.20
2018-08-11T11:04:35.656Z,32.20
2018-08-11T11:05:45.720Z,32.20
2018-08-11T11:06:53.785Z,32.30
2018-08-11T11:08:04.393Z,32.30
2018-08-11T11:09:12.990Z,32.30
2018-08-11T11:10:17.500Z,32.30
2018-08-11T11:11:21.721Z,32.30
2018-08-11T11:12:25.829Z,32.30
2018-08-11T11:13:29.989Z,32.20
2018-08-11T11:14:34.098Z,32.20
2018-08-11T11:15:38.523Z,32.10
2018-08-11T11:16:42.596Z,32.00
2018-08-11T11:17:46.675Z,31.90
2018-08-11T11:18:50.802Z,31.80
2018-08-11T11:19:54.868Z,31.70
2018-08-11T11:20:59.128Z,31.60
2018-08-11T11:22:03.124Z,31.50
2018-08-11T11:23:07.461Z,31.50
2018-08-11T11:24:11.947Z,31.40
2018-08-11T11:25:16.076Z,31.40
2018-08-11T11:26:20.364Z,31.40
2018-08-11T11:27:26.340Z,31.40
2018-08-11T11:28:33.261Z,31.40
2018-08-11T11:29:41.143Z,31.40
2018-08-11T11:30:48.056Z,31.40
2018-08-11T11:31:53.723Z,31.40
2018-08-11T11:32:58.903Z,31.50
2018-08-11T11:34:04.480Z,31.50
2018-08-11T11:35:09.181Z,31.50
2018-08-11T11:36:16.744Z,31.50
2018-08-11T11:37:22.610Z,31.50
2018-08-11T11:38:31.014Z,31.80
2018-08-11T11:39:36.808Z,31.50
2018-08-11T11:40:42.708Z,31.50
2018-08-11T11:41:49.854Z,31.50
2018-08-11T11:42:57.424Z,31.50
2018-08-11T11:44:05.856Z,31.50
2018-08-11T11:45:14.478Z,31.50
2018-08-11T11:46:24.010Z,31.50
2018-08-11T11:47:33.629Z,31.50
2018-08-11T11:48:42.120Z,31.50
2018-08-11T11:49:50.003Z,31.50
2018-08-11T11:50:55.156Z,31.50
2018-08-11T11:52:02.204Z,31.50
2018-08-11T11:53:07.833Z,31.60
2018-08-11T11:54:14.877Z,31.60
2018-08-11T11:55:23.362Z,31.60
2018-08-11T11:56:31.583Z,31.70
2018-08-11T11:57:37.655Z,31.70
2018-08-11T11:58:45.178Z,31.80
2018-08-11T11:59:52.703Z,31.90
2018-08-11T12:01:00.534Z,32.00
2018-08-11T12:02:06.756Z,32.00
2018-08-11T12:03:14.185Z,32.10
2018-08-11T12:04:20.406Z,32.20
2018-08-11T12:05:27.401Z,32.30
2018-08-11T12:06:34.551Z,32.40
2018-08-11T12:07:41.185Z,32.50
2018-08-11T12:08:47.830Z,32.50
2018-08-11T12:09:53.612Z,32.60
2018-08-11T12:11:02.483Z,32.60
2018-08-11T12:12:09.654Z,32.70
2018-08-11T12:13:17.331Z,32.70
2018-08-11T12:14:27.670Z,32.80
2018-08-11T12:15:35.502Z,32.90
2018-08-11T12:16:43.449Z,33.00
2018-08-11T12:17:49.793Z,33.10
2018-08-11T12:18:57.039Z,33.20
2018-08-11T12:20:03.474Z,33.30
2018-08-11T12:21:11.352Z,33.40
2018-08-11T12:22:18.599Z,33.50
2018-08-11T12:23:25.326Z,33.60
2018-08-11T12:24:34.621Z,33.60
2018-08-11T12:25:40.975Z,33.70
2018-08-11T12:26:47.646Z,33.80
2018-08-11T12:27:54.638Z,33.80
2018-08-11T12:29:02.103Z,33.80
2018-08-11T12:30:11.212Z,33.90
2018-08-11T12:31:19.166Z,33.90
2018-08-11T12:32:26.699Z,33.90
2018-08-11T12:33:34.659Z,34.00
2018-08-11T12:34:40.322Z,34.00
2018-08-11T12:35:45.963Z,34.10
2018-08-11T12:36:52.019Z,34.20
2018-08-11T12:38:00.519Z,34.20
2018-08-11T12:39:12.645Z,34.30
2018-08-11T12:40:22.512Z,34.40
2018-08-11T12:41:33.441Z,34.40
2018-08-11T12:42:42.706Z,34.40
2018-08-11T12:43:52.580Z,34.40
2018-08-11T12:45:02.904Z,34.50
2018-08-11T12:46:10.251Z,34.50
2018-08-11T12:47:17.181Z,34.50
2018-08-11T12:48:25.342Z,34.50
2018-08-11T12:49:34.637Z,34.50
2018-08-11T12:50:44.425Z,34.50
2018-08-11T12:51:51.783Z,34.50
2018-08-11T12:52:59.211Z,34.50
2018-08-11T12:54:06.880Z,34.50
2018-08-11T12:55:17.294Z,34.60
2018-08-11T12:56:26.453Z,34.50
2018-08-11T12:57:34.837Z,34.50
2018-08-11T12:58:43.503Z,34.50
2018-08-11T12:59:52.153Z,34.40
2018-08-11T13:01:01.459Z,34.40
2018-08-11T13:02:10.365Z,34.40
2018-08-11T13:03:18.347Z,34.30
2018-08-11T13:04:28.028Z,34.10
2018-08-11T13:05:36.198Z,34.10
2018-08-11T13:06:45.393Z,33.90
2018-08-11T13:07:53.297Z,33.90
2018-08-11T13:09:02.897Z,33.80
2018-08-11T13:10:11.869Z,33.70
2018-08-11T13:11:20.856Z,33.60
2018-08-11T13:12:30.963Z,33.60
2018-08-11T13:13:38.233Z,33.60
2018-08-11T13:14:46.817Z,33.60
2018-08-11T13:15:56.150Z,33.60
2018-08-11T13:17:07.295Z,33.60
2018-08-11T13:18:14.932Z,33.50
2018-08-11T13:19:33.033Z,33.60
2018-08-11T13:20:37.449Z,33.60
2018-08-11T13:21:41.587Z,33.60
2018-08-11T13:22:47.828Z,33.60
2018-08-11T13:23:56.095Z,33.70
2018-08-11T13:25:03.758Z,33.70
2018-08-11T13:26:10.679Z,33.80
2018-08-11T13:27:18.435Z,33.90
2018-08-11T13:28:27.298Z,34.00
2018-08-11T13:29:34.936Z,34.10
2018-08-11T13:30:41.945Z,34.20
2018-08-11T13:31:51.021Z,34.30
2018-08-11T13:32:56.550Z,34.40
2018-08-11T13:34:05.522Z,34.50
2018-08-11T13:35:13.476Z,34.60
2018-08-11T13:36:21.221Z,34.70
2018-08-11T13:37:30.437Z,34.80
2018-08-11T13:38:38.791Z,34.90
2018-08-11T13:39:52.573Z,35.00
2018-08-11T13:41:00.181Z,35.00
2018-08-11T13:42:09.399Z,35.10
2018-08-11T13:43:17.475Z,35.00
2018-08-11T13:44:25.503Z,35.00
2018-08-11T13:45:34.295Z,34.90
2018-08-11T13:46:42.757Z,34.80
2018-08-11T13:47:49.882Z,34.70
2018-08-11T13:48:59.115Z,34.60
2018-08-11T13:50:08.494Z,34.40
2018-08-11T13:51:17.556Z,34.30
2018-08-11T13:52:25.807Z,34.20
2018-08-11T13:53:33.521Z,34.10
2018-08-11T13:54:41.482Z,34.10
2018-08-11T13:55:50.606Z,34.00
2018-08-11T13:56:58.883Z,34.00
2018-08-11T13:58:07.208Z,33.90